sensor_id;sensor_type;location;lat;lon;timestamp;pressure;altitude;pressure_sealevel;temperature;humidity
5703;BME280;2876;51.738;10.050;2022-09-12T00:05:02;99496.56;;;12.20;100.00
5703;BME280;2876;51.738;10.050;2022-09-12T00:11:09;99485.59;;;12.15;100.00
5703;BME280;2876;51.738;10.050;2022-09-12T00:17:11;99488.69;;;12.12;100.00
5703;BME280;2876;51.738;10.050;2022-09-12T00:23:13;99481.88;;;12.09;100.00
5703;BME280;2876;51.738;10.050;2022-09-12T00:29:19;99482.06;;;11.95;100.00
5703;BME280;2876;51.738;10.050;2022-09-12T00:35:21;99486.19;;;11.97;100.00
5703;BME280;2876;51.738;10.050;2022-09-12T00:47:30;99475.78;;;11.81;100.00
5703;BME280;2876;51.738;10.050;2022-09-12T00:53:33;99469.94;;;11.57;100.00
5703;BME280;2876;51.738;10.050;2022-09-12T01:00:00;99473.22;;;11.53;100.00
5703;BME280;2876;51.738;10.050;2022-09-12T01:06:37;99470.94;;;11.43;99.15
5703;BME280;2876;51.738;10.050;2022-09-12T01:12:42;99462.59;;;11.18;100.00
5703;BME280;2876;51.738;10.050;2022-09-12T01:25:54;99456.28;;;10.98;100.00
5703;BME280;2876;51.738;10.050;2022-09-12T01:38:49;99443.41;;;10.80;100.00
5703;BME280;2876;51.738;10.050;2022-09-12T01:45:48;99440.25;;;10.70;100.00
5703;BME280;2876;51.738;10.050;2022-09-12T01:58:16;99431.31;;;10.56;100.00
5703;BME280;2876;51.738;10.050;2022-09-12T02:04:24;99427.94;;;10.47;100.00
5703;BME280;2876;51.738;10.050;2022-09-12T02:10:59;99428.19;;;10.52;100.00
5703;BME280;2876;51.738;10.050;2022-09-12T02:17:13;99427.94;;;10.47;100.00
5703;BME280;2876;51.738;10.050;2022-09-12T02:23:25;99417.09;;;10.27;100.00
5703;BME280;2876;51.738;10.050;2022-09-12T02:29:28;99429.25;;;10.30;100.00
5703;BME280;2876;51.738;10.050;2022-09-12T02:35:47;99426.19;;;10.33;100.00
5703;BME280;2876;51.738;10.050;2022-09-12T02:41:51;99417.41;;;10.18;100.00
5703;BME280;2876;51.738;10.050;2022-09-12T02:48:30;99418.63;;;10.15;100.00
5703;BME280;2876;51.738;10.050;2022-09-12T02:54:35;99411.97;;;10.11;100.00
5703;BME280;2876;51.738;10.050;2022-09-12T03:00:59;99408.28;;;10.12;100.00
5703;BME280;2876;51.738;10.050;2022-09-12T03:13:46;99406.16;;;10.07;100.00
5703;BME280;2876;51.738;10.050;2022-09-12T03:26:15;99403.31;;;10.09;100.00
5703;BME280;2876;51.738;10.050;2022-09-12T03:32:18;99411.97;;;10.11;100.00
5703;BME280;2876;51.738;10.050;2022-09-12T03:38:19;99412.34;;;10.08;100.00
5703;BME280;2876;51.738;10.050;2022-09-12T03:44:23;99408.75;;;9.94;100.00
5703;BME280;2876;51.738;10.050;2022-09-12T03:50:25;99411.25;;;9.96;100.00
5703;BME280;2876;51.738;10.050;2022-09-12T03:56:27;99405.56;;;9.84;100.00
5703;BME280;2876;51.738;10.050;2022-09-12T04:02:29;99407.06;;;9.86;100.00
5703;BME280;2876;51.738;10.050;2022-09-12T04:08:32;99415.13;;;9.93;100.00
5703;BME280;2876;51.738;10.050;2022-09-12T04:14:34;99418.00;;;9.91;100.00
5703;BME280;2876;51.738;10.050;2022-09-12T04:20:36;99415.91;;;9.87;100.00
5703;BME280;2876;51.738;10.050;2022-09-12T04:26:38;99420.44;;;9.86;100.00
5703;BME280;2876;51.738;10.050;2022-09-12T04:32:40;99415.91;;;9.87;100.00
5703;BME280;2876;51.738;10.050;2022-09-12T04:38:46;99415.72;;;9.88;100.00
5703;BME280;2876;51.738;10.050;2022-09-12T04:44:48;99415.31;;;10.13;100.00
5703;BME280;2876;51.738;10.050;2022-09-12T04:50:50;99422.66;;;10.04;100.00
5703;BME280;2876;51.738;10.050;2022-09-12T04:56:52;99416.88;;;10.07;100.00
5703;BME280;2876;51.738;10.050;2022-09-12T05:02:55;99423.41;;;9.98;100.00
5703;BME280;2876;51.738;10.050;2022-09-12T05:08:59;99420.47;;;10.14;100.00
5703;BME280;2876;51.738;10.050;2022-09-12T05:15:02;99419.06;;;10.19;100.00
5703;BME280;2876;51.738;10.050;2022-09-12T05:21:07;99418.81;;;10.13;100.00
5703;BME280;2876;51.738;10.050;2022-09-12T05:27:10;99421.63;;;10.27;100.00
5703;BME280;2876;51.738;10.050;2022-09-12T05:33:21;99424.66;;;10.24;100.00
5703;BME280;2876;51.738;10.050;2022-09-12T05:39:25;99432.63;;;10.38;100.00
5703;BME280;2876;51.738;10.050;2022-09-12T05:45:28;99444.72;;;10.56;100.00
5703;BME280;2876;51.738;10.050;2022-09-12T05:51:36;99448.69;;;11.01;100.00
5703;BME280;2876;51.738;10.050;2022-09-12T05:57:39;99451.88;;;11.25;100.00
5703;BME280;2876;51.738;10.050;2022-09-12T06:03:48;99449.06;;;11.46;100.00
5703;BME280;2876;51.738;10.050;2022-09-12T06:16:16;99449.59;;;12.09;100.00
5703;BME280;2876;51.738;10.050;2022-09-12T06:22:18;99454.75;;;12.31;99.93
5703;BME280;2876;51.738;10.050;2022-09-12T06:28:20;99450.00;;;12.39;99.37
5703;BME280;2876;51.738;10.050;2022-09-12T06:34:22;99446.28;;;12.47;99.44
5703;BME280;2876;51.738;10.050;2022-09-12T06:40:24;99443.00;;;13.10;98.08
5703;BME280;2876;51.738;10.050;2022-09-12T06:46:28;99443.41;;;14.90;92.60
5703;BME280;2876;51.738;10.050;2022-09-12T06:52:31;99443.59;;;18.96;78.03
5703;BME280;2876;51.738;10.050;2022-09-12T06:58:34;99466.88;;;21.81;64.22
5703;BME280;2876;51.738;10.050;2022-09-12T07:04:36;99476.75;;;23.69;55.25
5703;BME280;2876;51.738;10.050;2022-09-12T07:10:38;99487.22;;;24.75;51.98
5703;BME280;2876;51.738;10.050;2022-09-12T07:22:49;99489.75;;;21.60;59.10
5703;BME280;2876;51.738;10.050;2022-09-12T07:28:53;99470.34;;;19.70;65.22
5703;BME280;2876;51.738;10.050;2022-09-12T07:34:55;99465.69;;;18.83;69.52
5703;BME280;2876;51.738;10.050;2022-09-12T07:40:57;99449.16;;;18.34;72.20
5703;BME280;2876;51.738;10.050;2022-09-12T07:46:59;99446.50;;;17.88;76.01
5703;BME280;2876;51.738;10.050;2022-09-12T07:53:03;99451.22;;;18.10;76.69
5703;BME280;2876;51.738;10.050;2022-09-12T07:59:06;99452.28;;;18.42;75.71
5703;BME280;2876;51.738;10.050;2022-09-12T08:05:08;99456.00;;;18.53;76.09
5703;BME280;2876;51.738;10.050;2022-09-12T08:11:13;99457.31;;;18.50;75.15
5703;BME280;2876;51.738;10.050;2022-09-12T08:17:16;99459.69;;;19.02;72.79
5703;BME280;2876;51.738;10.050;2022-09-12T08:29:27;99463.94;;;19.59;71.94
5703;BME280;2876;51.738;10.050;2022-09-12T08:43:26;99464.91;;;20.61;69.95
5703;BME280;2876;51.738;10.050;2022-09-12T08:49:02;99463.84;;;21.67;66.72
5703;BME280;2876;51.738;10.050;2022-09-12T09:01:43;99453.22;;;24.08;59.42
5703;BME280;2876;51.738;10.050;2022-09-12T09:14:47;99455.78;;;25.82;52.17
5703;BME280;2876;51.738;10.050;2022-09-12T09:21:18;99456.72;;;27.36;48.13
5703;BME280;2876;51.738;10.050;2022-09-12T09:27:32;99454.19;;;28.56;45.75
5703;BME280;2876;51.738;10.050;2022-09-12T09:33:45;99468.84;;;29.94;42.46
5703;BME280;2876;51.738;10.050;2022-09-12T09:46:17;99447.78;;;32.31;34.89
5703;BME280;2876;51.738;10.050;2022-09-12T09:52:25;99444.38;;;32.13;37.05
5703;BME280;2876;51.738;10.050;2022-09-12T09:58:35;99439.03;;;32.08;36.17
5703;BME280;2876;51.738;10.050;2022-09-12T10:04:40;99432.91;;;31.22;35.39
5703;BME280;2876;51.738;10.050;2022-09-12T10:10:58;99430.06;;;30.46;38.62
5703;BME280;2876;51.738;10.050;2022-09-12T10:17:20;99414.78;;;30.40;38.37
5703;BME280;2876;51.738;10.050;2022-09-12T10:23:35;99402.44;;;29.85;38.08
5703;BME280;2876;51.738;10.050;2022-09-12T10:29:53;99399.19;;;29.92;38.07
5703;BME280;2876;51.738;10.050;2022-09-12T10:35:57;99393.81;;;29.69;37.46
5703;BME280;2876;51.738;10.050;2022-09-12T10:41:59;99392.03;;;29.99;38.11
5703;BME280;2876;51.738;10.050;2022-09-12T10:48:27;99381.09;;;30.12;37.09
5703;BME280;2876;51.738;10.050;2022-09-12T10:54:30;99380.28;;;30.11;37.00
5703;BME280;2876;51.738;10.050;2022-09-12T11:00:39;99371.50;;;30.09;35.72
5703;BME280;2876;51.738;10.050;2022-09-12T11:33:19;99360.28;;;30.61;35.37
5703;BME280;2876;51.738;10.050;2022-09-12T11:39:38;99343.06;;;29.82;37.52
5703;BME280;2876;51.738;10.050;2022-09-12T11:45:43;99342.69;;;30.01;36.84
5703;BME280;2876;51.738;10.050;2022-09-12T11:58:02;99326.44;;;27.58;41.00
5703;BME280;2876;51.738;10.050;2022-09-12T12:04:10;99333.28;;;27.10;42.89
5703;BME280;2876;51.738;10.050;2022-09-12T12:10:52;99326.81;;;26.32;42.58
5703;BME280;2876;51.738;10.050;2022-09-12T12:16:56;99322.28;;;26.55;46.58
5703;BME280;2876;51.738;10.050;2022-09-12T12:22:59;99312.91;;;26.70;42.67
5703;BME280;2876;51.738;10.050;2022-09-12T12:29:01;99323.66;;;27.58;42.44
5703;BME280;2876;51.738;10.050;2022-09-12T12:35:38;99304.97;;;26.54;43.93
5703;BME280;2876;51.738;10.050;2022-09-12T12:41:44;99304.22;;;27.76;41.65
5703;BME280;2876;51.738;10.050;2022-09-12T12:47:51;99293.91;;;26.96;44.28
5703;BME280;2876;51.738;10.050;2022-09-12T12:53:54;99287.19;;;26.33;45.65
5703;BME280;2876;51.738;10.050;2022-09-12T13:00:59;99285.66;;;25.29;47.66
5703;BME280;2876;51.738;10.050;2022-09-12T13:06:40;99281.72;;;25.16;48.65
5703;BME280;2876;51.738;10.050;2022-09-12T13:12:45;99274.59;;;25.86;47.88
5703;BME280;2876;51.738;10.050;2022-09-12T13:18:49;99273.59;;;27.64;42.90
5703;BME280;2876;51.738;10.050;2022-09-12T13:24:52;99270.97;;;29.70;41.42
5703;BME280;2876;51.738;10.050;2022-09-12T13:31:20;99264.63;;;28.03;43.31
5703;BME280;2876;51.738;10.050;2022-09-12T13:43:52;99249.78;;;28.70;40.94
5703;BME280;2876;51.738;10.050;2022-09-12T13:49:55;99236.50;;;28.81;42.38
5703;BME280;2876;51.738;10.050;2022-09-12T13:55:58;99242.78;;;30.71;38.36
5703;BME280;2876;51.738;10.050;2022-09-12T14:02:00;99239.00;;;33.99;34.28
5703;BME280;2876;51.738;10.050;2022-09-12T14:08:06;99232.31;;;34.19;31.78
5703;BME280;2876;51.738;10.050;2022-09-12T14:14:35;99233.22;;;33.07;33.90
5703;BME280;2876;51.738;10.050;2022-09-12T14:20:38;99220.72;;;30.83;36.45
5703;BME280;2876;51.738;10.050;2022-09-12T14:26:41;99210.19;;;32.82;35.02
5703;BME280;2876;51.738;10.050;2022-09-12T14:39:20;99206.03;;;36.30;28.15
5703;BME280;2876;51.738;10.050;2022-09-12T14:45:29;99181.50;;;35.31;27.91
5703;BME280;2876;51.738;10.050;2022-09-12T14:58:23;99186.09;;;36.31;28.40
5703;BME280;2876;51.738;10.050;2022-09-12T15:04:40;99182.63;;;36.65;26.75
5703;BME280;2876;51.738;10.050;2022-09-12T15:10:43;99186.91;;;37.49;26.20
5703;BME280;2876;51.738;10.050;2022-09-12T15:16:45;99186.16;;;37.96;25.50
5703;BME280;2876;51.738;10.050;2022-09-12T15:22:47;99177.81;;;38.55;23.76
5703;BME280;2876;51.738;10.050;2022-09-12T15:28:50;99174.13;;;37.92;24.48
5703;BME280;2876;51.738;10.050;2022-09-12T15:34:53;99161.09;;;38.14;24.35
5703;BME280;2876;51.738;10.050;2022-09-12T15:40:55;99162.75;;;38.22;24.64
5703;BME280;2876;51.738;10.050;2022-09-12T15:46:57;99160.06;;;38.37;24.67
5703;BME280;2876;51.738;10.050;2022-09-12T15:53:01;99151.16;;;35.07;27.38
5703;BME280;2876;51.738;10.050;2022-09-12T15:59:03;99131.31;;;32.87;30.60
5703;BME280;2876;51.738;10.050;2022-09-12T16:05:19;99130.94;;;33.01;31.25
5703;BME280;2876;51.738;10.050;2022-09-12T16:11:23;99122.88;;;32.83;31.13
5703;BME280;2876;51.738;10.050;2022-09-12T16:17:26;99120.13;;;33.55;29.63
5703;BME280;2876;51.738;10.050;2022-09-12T16:23:28;99119.16;;;33.79;29.18
5703;BME280;2876;51.738;10.050;2022-09-12T16:29:30;99109.81;;;31.58;33.07
5703;BME280;2876;51.738;10.050;2022-09-12T16:35:32;99095.84;;;29.66;36.25
5703;BME280;2876;51.738;10.050;2022-09-12T16:41:34;99081.09;;;27.97;40.57
5703;BME280;2876;51.738;10.050;2022-09-12T16:47:36;99073.97;;;26.36;43.23
5703;BME280;2876;51.738;10.050;2022-09-12T16:53:38;99068.50;;;24.93;45.50
5703;BME280;2876;51.738;10.050;2022-09-12T16:59:40;99053.50;;;23.96;47.60
5703;BME280;2876;51.738;10.050;2022-09-12T17:05:42;99053.91;;;23.12;50.69
5703;BME280;2876;51.738;10.050;2022-09-12T17:11:45;99037.81;;;22.37;52.24
5703;BME280;2876;51.738;10.050;2022-09-12T17:17:48;99036.25;;;21.71;55.48
5703;BME280;2876;51.738;10.050;2022-09-12T17:23:52;99031.94;;;21.55;55.40
5703;BME280;2876;51.738;10.050;2022-09-12T17:29:54;99027.69;;;20.98;56.37
5703;BME280;2876;51.738;10.050;2022-09-12T17:36:01;99042.44;;;20.56;56.36
5703;BME280;2876;51.738;10.050;2022-09-12T17:42:04;99032.53;;;19.99;57.05
5703;BME280;2876;51.738;10.050;2022-09-12T17:48:09;99033.41;;;19.52;59.23
5703;BME280;2876;51.738;10.050;2022-09-12T17:54:15;99032.31;;;19.00;61.93
5703;BME280;2876;51.738;10.050;2022-09-12T18:00:18;99042.16;;;18.69;62.57
5703;BME280;2876;51.738;10.050;2022-09-12T18:06:40;99042.50;;;18.51;64.91
5703;BME280;2876;51.738;10.050;2022-09-12T18:12:49;99039.78;;;18.19;67.54
5703;BME280;2876;51.738;10.050;2022-09-12T18:18:51;99038.09;;;18.13;68.75
5703;BME280;2876;51.738;10.050;2022-09-12T18:24:53;99031.00;;;18.12;70.14
5703;BME280;2876;51.738;10.050;2022-09-12T18:30:55;99034.69;;;18.00;71.31
5703;BME280;2876;51.738;10.050;2022-09-12T18:36:57;99033.69;;;17.85;72.20
5703;BME280;2876;51.738;10.050;2022-09-12T18:42:59;99042.91;;;17.84;72.12
5703;BME280;2876;51.738;10.050;2022-09-12T18:49:02;99041.03;;;17.84;72.83
5703;BME280;2876;51.738;10.050;2022-09-12T18:55:05;99045.56;;;17.79;73.00
5703;BME280;2876;51.738;10.050;2022-09-12T19:01:23;99062.84;;;17.72;73.51
5703;BME280;2876;51.738;10.050;2022-09-12T19:07:25;99050.84;;;17.68;73.91
5703;BME280;2876;51.738;10.050;2022-09-12T19:13:27;99047.22;;;17.80;73.41
5703;BME280;2876;51.738;10.050;2022-09-12T19:19:29;99053.56;;;17.68;73.51
5703;BME280;2876;51.738;10.050;2022-09-12T19:25:31;99052.81;;;17.73;73.99
5703;BME280;2876;51.738;10.050;2022-09-12T19:31:33;99045.31;;;17.58;75.01
5703;BME280;2876;51.738;10.050;2022-09-12T19:37:35;99042.13;;;17.66;75.17
5703;BME280;2876;51.738;10.050;2022-09-12T19:43:38;99041.06;;;17.45;75.83
5703;BME280;2876;51.738;10.050;2022-09-12T19:49:40;99041.78;;;17.58;75.70
5703;BME280;2876;51.738;10.050;2022-09-12T19:55:42;99018.22;;;17.19;76.15
5703;BME280;2876;51.738;10.050;2022-09-12T20:01:44;99020.00;;;17.31;75.79
5703;BME280;2876;51.738;10.050;2022-09-12T20:07:46;99014.44;;;17.42;74.69
5703;BME280;2876;51.738;10.050;2022-09-12T20:13:49;99001.53;;;17.49;74.22
5703;BME280;2876;51.738;10.050;2022-09-12T20:19:51;99004.84;;;17.35;74.36
5703;BME280;2876;51.738;10.050;2022-09-12T20:25:53;99003.00;;;17.35;74.40
5703;BME280;2876;51.738;10.050;2022-09-12T20:31:55;98994.84;;;17.13;75.78
5703;BME280;2876;51.738;10.050;2022-09-12T20:37:56;98980.16;;;17.09;76.28
5703;BME280;2876;51.738;10.050;2022-09-12T20:43:59;98984.06;;;16.80;77.37
5703;BME280;2876;51.738;10.050;2022-09-12T20:50:01;98979.91;;;16.72;78.17
5703;BME280;2876;51.738;10.050;2022-09-12T20:56:03;98977.44;;;16.54;79.05
5703;BME280;2876;51.738;10.050;2022-09-12T21:02:12;98964.69;;;16.37;79.45
5703;BME280;2876;51.738;10.050;2022-09-12T21:08:15;98959.22;;;16.32;79.28
5703;BME280;2876;51.738;10.050;2022-09-12T21:14:17;98966.50;;;16.32;79.91
5703;BME280;2876;51.738;10.050;2022-09-12T21:20:19;98948.78;;;16.41;79.71
5703;BME280;2876;51.738;10.050;2022-09-12T21:26:20;98954.19;;;16.07;80.38
5703;BME280;2876;51.738;10.050;2022-09-12T21:32:22;98937.84;;;16.02;80.36
5703;BME280;2876;51.738;10.050;2022-09-12T21:38:24;98938.19;;;16.06;79.55
5703;BME280;2876;51.738;10.050;2022-09-12T21:44:26;98929.44;;;16.15;78.82
5703;BME280;2876;51.738;10.050;2022-09-12T21:50:28;98921.09;;;16.17;78.92
5703;BME280;2876;51.738;10.050;2022-09-12T21:56:30;98916.97;;;16.14;79.24
5703;BME280;2876;51.738;10.050;2022-09-12T22:02:32;98908.69;;;16.04;80.26
5703;BME280;2876;51.738;10.050;2022-09-12T22:08:35;98907.59;;;15.88;81.06
5703;BME280;2876;51.738;10.050;2022-09-12T22:14:40;98901.94;;;16.07;81.29
5703;BME280;2876;51.738;10.050;2022-09-12T22:20:42;98894.81;;;15.84;81.60
5703;BME280;2876;51.738;10.050;2022-09-12T22:26:45;98883.34;;;15.93;81.68
5703;BME280;2876;51.738;10.050;2022-09-12T22:32:48;98878.75;;;15.77;81.84
5703;BME280;2876;51.738;10.050;2022-09-12T22:38:50;98886.13;;;15.53;83.34
5703;BME280;2876;51.738;10.050;2022-09-12T22:44:52;98892.25;;;15.48;83.40
5703;BME280;2876;51.738;10.050;2022-09-12T22:50:54;98875.38;;;15.41;83.96
5703;BME280;2876;51.738;10.050;2022-09-12T22:56:56;98873.03;;;15.45;83.56
5703;BME280;2876;51.738;10.050;2022-09-12T23:02:58;98878.28;;;15.23;84.57
5703;BME280;2876;51.738;10.050;2022-09-12T23:09:00;98862.19;;;15.16;84.80
5703;BME280;2876;51.738;10.050;2022-09-12T23:15:02;98861.06;;;15.41;84.70
5703;BME280;2876;51.738;10.050;2022-09-12T23:21:07;98861.19;;;15.63;83.70
5703;BME280;2876;51.738;10.050;2022-09-12T23:27:10;98855.88;;;15.68;84.00
5703;BME280;2876;51.738;10.050;2022-09-12T23:33:12;98863.47;;;15.54;84.82
5703;BME280;2876;51.738;10.050;2022-09-12T23:39:14;98867.63;;;15.45;84.96
5703;BME280;2876;51.738;10.050;2022-09-12T23:45:16;98872.22;;;15.44;84.65
5703;BME280;2876;51.738;10.050;2022-09-12T23:51:18;98862.69;;;15.42;84.84
5703;BME280;2876;51.738;10.050;2022-09-12T23:57:22;98864.69;;;15.18;85.53
